Time;durP1;ratioP1;P1;durP2;ratioP2;P2;SDS_P1;SDS_P2;PMS_P1;PMS_P2;Temp;Humidity;BMP_temperature;BMP_pressure;BME280_temperature;BME280_humidity;BME280_pressure;Samples;Min_cycle;Max_cycle;Signal;HPM_P1;HPM_P2
2022/08/02 00:02:13;;;;;;;0.10;0.10;;;;;;;20.38;50.91;101942.91;5017378;28;20589;-83
2022/08/02 00:04:40;;;;;;;0.10;0.10;;;;;;;20.44;51.78;101942.63;5018113;28;20026;-82
2022/08/02 00:07:06;;;;;;;0.10;0.10;;;;;;;20.44;51.12;101942.63;5018909;28;20075;-82
2022/08/02 00:09:32;;;;;;;0.13;0.13;;;;;;;20.39;48.28;101932.06;5016461;28;20030;-82
2022/08/02 00:11:58;;;;;;;0.10;0.10;;;;;;;20.37;48.91;101925.88;5016991;28;20414;-83
2022/08/02 00:14:24;;;;;;;0.08;0.08;;;;;;;20.34;49.20;101926.03;5018051;28;20109;-82
2022/08/02 00:16:50;;;;;;;0.10;0.10;;;;;;;20.32;49.40;101923.38;5017729;28;20450;-82
2022/08/02 00:19:17;;;;;;;0.20;0.20;;;;;;;20.29;50.14;101919.97;5018186;28;20041;-82
2022/08/02 00:21:43;;;;;;;0.17;0.17;;;;;;;20.27;50.66;101917.31;5017260;28;20522;-82
2022/08/02 00:24:09;;;;;;;0.10;0.10;;;;;;;20.24;50.21;101916.56;5017977;28;20033;-82
2022/08/02 00:26:35;;;;;;;0.10;0.10;;;;;;;20.16;49.68;101923.19;5018547;28;20486;-81
2022/08/02 00:29:02;;;;;;;0.10;0.10;;;;;;;20.14;50.02;101913.44;5015574;28;20037;-80
2022/08/02 00:31:28;;;;;;;0.10;0.10;;;;;;;20.09;49.72;101915.44;5015141;28;20057;-81
2022/08/02 00:33:54;;;;;;;0.10;0.10;;;;;;;20.10;50.37;101912.69;5016768;28;20504;-81
2022/08/02 00:36:20;;;;;;;0.10;0.10;;;;;;;20.11;51.08;101913.56;5016620;28;20018;-82
2022/08/02 00:38:47;;;;;;;0.10;0.10;;;;;;;20.12;50.37;101909.94;5017183;28;20053;-81
2022/08/02 00:41:17;;;;;;;0.10;0.10;;;;;;;20.13;50.61;101909.00;5015753;28;20022;-81
2022/08/02 00:43:44;;;;;;;0.03;0.03;;;;;;;20.08;51.44;101908.31;5016566;28;20026;-83
2022/08/02 00:46:11;;;;;;;0.05;0.05;;;;;;;20.02;50.33;101909.44;5018002;28;20492;-81
2022/08/02 00:48:37;;;;;;;0.10;0.10;;;;;;;19.90;49.48;101908.16;5018610;28;20501;-81
2022/08/02 00:51:04;;;;;;;0.20;0.20;;;;;;;19.84;49.91;101905.75;5017613;28;20037;-81
2022/08/02 00:53:31;;;;;;;0.10;0.10;;;;;;;19.82;50.02;101902.19;5019488;28;20064;-81
2022/08/02 00:55:57;;;;;;;0.10;0.10;;;;;;;19.79;50.78;101905.00;5018502;28;20478;-82
2022/08/02 00:58:23;;;;;;;0.00;0.00;;;;;;;19.75;50.70;101912.34;5018301;28;20034;-82
2022/08/02 01:00:49;;;;;;;0.10;0.10;;;;;;;19.76;50.37;101902.44;5016740;28;20030;-82
2022/08/02 01:03:16;;;;;;;0.10;0.10;;;;;;;19.73;52.02;101898.94;5017113;28;20119;-82
2022/08/02 01:05:43;;;;;;;0.10;0.10;;;;;;;19.76;51.14;101894.38;5017952;28;20034;-81
2022/08/02 01:08:09;;;;;;;0.65;0.65;;;;;;;19.75;50.67;101901.59;5017633;28;20080;-81
2022/08/02 01:10:35;;;;;;;0.10;0.10;;;;;;;19.76;51.04;101897.06;5015968;28;20046;-83
2022/08/02 01:13:02;;;;;;;0.10;0.10;;;;;;;19.71;50.54;101889.19;5015405;28;20458;-83
2022/08/02 01:15:28;;;;;;;0.10;0.10;;;;;;;19.75;51.53;101889.94;5017380;28;20034;-82
2022/08/02 01:18:14;;;;;;;0.10;0.10;;;;;;;19.79;50.72;101892.44;5018198;28;20087;-83
2022/08/02 01:21:09;;;;;;;0.10;0.10;;;;;;;19.75;50.71;101879.19;5017013;28;20050;-81
2022/08/02 01:24:02;;;;;;;0.10;0.10;;;;;;;19.71;50.72;101879.34;5018155;28;20053;-80
2022/08/02 01:26:54;;;;;;;0.10;0.10;;;;;;;19.62;51.08;101878.84;5019038;28;20544;-82
2022/08/02 01:29:27;;;;;;;0.10;0.10;;;;;;;19.60;50.52;101878.00;5019694;28;20081;-82
2022/08/02 01:32:01;;;;;;;0.10;0.10;;;;;;;19.61;51.50;101879.78;5017062;28;20053;-82
2022/08/02 01:34:36;;;;;;;0.10;0.10;;;;;;;19.65;51.53;101878.69;5017826;28;20038;-82
2022/08/02 01:39:56;;;;;;;0.10;0.10;;;;;;;19.74;50.79;101883.69;5146983;27;20379;-81
2022/08/02 01:42:25;;;;;;;0.20;0.20;;;;;;;19.72;51.08;101885.56;5133035;27;20035;-82
2022/08/02 01:44:54;;;;;;;0.00;0.00;;;;;;;19.70;50.94;101888.34;5133619;28;20047;-83
2022/08/02 01:47:27;;;;;;;0.08;0.08;;;;;;;19.68;50.96;101884.81;5133665;28;20031;-82
2022/08/02 01:49:56;;;;;;;0.10;0.10;;;;;;;19.66;50.54;101883.13;5133641;27;20025;-82
2022/08/02 01:52:25;;;;;;;0.10;0.10;;;;;;;19.62;50.87;101882.38;5132983;28;20089;-82
2022/08/02 01:57:45;;;;;;;0.15;0.15;;;;;;;19.51;50.33;101879.28;5072881;28;20742;-81
2022/08/02 02:00:12;;;;;;;0.10;0.10;;;;;;;19.46;50.36;101876.75;5072636;28;20040;-81
2022/08/02 02:02:43;;;;;;;0.10;0.10;;;;;;;19.45;50.72;101882.22;5071305;28;20021;-82
2022/08/02 02:05:14;;;;;;;0.20;0.20;;;;;;;19.42;51.22;101876.97;5072750;28;20033;-82
2022/08/02 02:07:42;;;;;;;0.10;0.10;;;;;;;19.36;51.53;101883.47;5072255;28;20020;-82
2022/08/02 02:10:12;;;;;;;0.03;0.03;;;;;;;19.31;51.89;101878.25;5072293;28;20033;-81
2022/08/02 02:12:41;;;;;;;0.28;0.28;;;;;;;19.27;51.96;101883.84;5071137;28;20055;-82
2022/08/02 02:15:11;;;;;;;0.10;0.10;;;;;;;19.26;51.67;101880.25;5071998;28;20067;-81
2022/08/02 02:17:40;;;;;;;12.20;0.95;;;;;;;19.22;52.38;101882.19;5072088;28;20017;-81
2022/08/02 02:20:08;;;;;;;0.00;0.00;;;;;;;19.19;52.24;101876.06;5071178;28;20040;-82
2022/08/02 02:22:34;;;;;;;0.10;0.10;;;;;;;19.14;52.26;101867.31;5070824;28;20025;-81
2022/08/02 02:25:00;;;;;;;0.10;0.10;;;;;;;19.10;52.36;101868.38;5071760;28;20032;-81
2022/08/02 02:27:28;;;;;;;0.10;0.10;;;;;;;19.07;52.50;101861.31;5071736;28;20409;-82
2022/08/02 02:29:55;;;;;;;0.10;0.10;;;;;;;19.06;53.25;101865.81;5071307;28;20090;-81
2022/08/02 02:32:24;;;;;;;0.10;0.10;;;;;;;19.03;52.83;101855.19;5070200;28;20039;-82
2022/08/02 02:34:52;;;;;;;0.10;0.10;;;;;;;19.02;52.64;101864.19;5071241;28;20029;-81
2022/08/02 02:37:22;;;;;;;0.10;0.10;;;;;;;19.01;52.51;101862.44;5070659;28;20024;-82
2022/08/02 02:39:51;;;;;;;0.10;0.10;;;;;;;19.01;52.52;101867.81;5071048;28;20102;-82
2022/08/02 02:42:22;;;;;;;0.13;0.13;;;;;;;19.01;53.40;101861.56;5070253;28;20044;-83
2022/08/02 02:44:50;;;;;;;0.10;0.10;;;;;;;19.01;53.61;101851.69;5070695;28;20028;-81
2022/08/02 02:47:17;;;;;;;0.10;0.10;;;;;;;19.01;53.67;101846.31;5070567;28;20029;-80
2022/08/02 02:49:46;;;;;;;0.95;0.93;;;;;;;18.98;53.15;101846.44;5070752;28;20400;-82
2022/08/02 02:52:15;;;;;;;0.10;0.10;;;;;;;18.98;53.08;101851.81;5070364;28;20029;-81
2022/08/02 02:54:45;;;;;;;0.10;0.10;;;;;;;18.98;53.00;101851.81;5071527;28;20043;-81
2022/08/02 02:57:16;;;;;;;0.10;0.10;;;;;;;18.99;52.78;101858.06;5071605;28;20044;-81
2022/08/02 02:59:42;;;;;;;0.10;0.10;;;;;;;18.95;52.85;101851.94;5072020;28;20044;-80
2022/08/02 03:02:10;;;;;;;0.10;0.10;;;;;;;18.95;53.04;101849.25;5070780;28;20036;-82
2022/08/02 03:04:39;;;;;;;0.10;0.10;;;;;;;18.94;53.32;101850.19;5071299;28;20028;-81
2022/08/02 03:07:05;;;;;;;0.10;0.10;;;;;;;18.91;53.25;101847.63;5068777;28;20029;-82
2022/08/02 03:09:32;;;;;;;2.30;0.45;;;;;;;18.91;53.29;101850.31;5057516;28;20025;-82
2022/08/02 03:11:58;;;;;;;0.10;0.10;;;;;;;18.90;53.42;101851.19;5056766;28;20033;-82
2022/08/02 03:14:24;;;;;;;0.10;0.10;;;;;;;18.91;53.50;101853.00;5058390;28;20096;-82
2022/08/02 03:16:52;;;;;;;0.30;0.30;;;;;;;18.91;53.71;101856.53;5057577;28;20025;-82
2022/08/02 03:19:21;;;;;;;0.10;0.10;;;;;;;18.92;53.29;101846.69;5057176;28;20033;-83
2022/08/02 03:21:48;;;;;;;0.10;0.10;;;;;;;18.89;53.45;101846.75;5057051;28;20112;-81
2022/08/02 03:24:14;;;;;;;0.10;0.10;;;;;;;18.87;53.26;101835.22;5057332;28;20032;-81
2022/08/02 03:26:41;;;;;;;0.10;0.10;;;;;;;18.84;53.51;101833.53;5056887;28;20531;-82
2022/08/02 03:29:08;;;;;;;0.10;0.10;;;;;;;18.83;53.63;101831.78;5057057;28;20033;-79
2022/08/02 03:31:36;;;;;;;0.10;0.10;;;;;;;18.83;53.24;101820.16;5056462;28;20067;-81
2022/08/02 03:34:03;;;;;;;0.10;0.10;;;;;;;18.81;52.68;101811.31;5058005;28;20100;-81
2022/08/02 03:36:31;;;;;;;0.28;0.28;;;;;;;18.76;52.96;101809.66;5057747;28;20037;-80
2022/08/02 03:39:00;;;;;;;0.10;0.10;;;;;;;18.74;53.17;101811.53;5057764;28;20029;-80
2022/08/02 03:41:28;;;;;;;0.45;0.45;;;;;;;18.71;53.48;101803.59;5057423;28;20443;-82
2022/08/02 03:43:55;;;;;;;0.10;0.10;;;;;;;18.72;53.43;101808.03;5056737;28;20523;-81
2022/08/02 03:46:22;;;;;;;0.10;0.10;;;;;;;18.71;53.10;101810.78;5056911;28;20370;-82
2022/08/02 03:48:50;;;;;;;0.10;0.10;;;;;;;18.70;53.46;101822.44;5056310;28;20121;-81
2022/08/02 03:51:18;;;;;;;0.10;0.10;;;;;;;18.68;53.63;101822.50;5056310;28;20021;-82
2022/08/02 03:53:45;;;;;;;0.10;0.10;;;;;;;18.69;53.55;101823.38;5055363;28;20029;-82
2022/08/02 03:56:11;;;;;;;0.10;0.10;;;;;;;18.65;54.58;101821.75;5056309;28;20143;-83
2022/08/02 03:58:37;;;;;;;0.03;0.03;;;;;;;18.60;53.81;101819.25;5056801;28;20037;-82
2022/08/02 04:01:03;;;;;;;0.20;0.20;;;;;;;18.60;54.39;101811.19;5054780;28;20037;-81
2022/08/02 04:03:29;;;;;;;0.10;0.10;;;;;;;18.59;53.86;101802.28;5057402;28;20088;-80
2022/08/02 04:05:55;;;;;;;0.10;0.10;;;;;;;18.56;53.77;101806.88;5057272;28;20108;-81
2022/08/02 04:08:22;;;;;;;0.10;0.10;;;;;;;18.56;54.83;101796.16;5056365;28;20074;-81
2022/08/02 04:13:37;;;;;;;0.10;0.10;;;;;;;18.51;54.26;101798.13;5055651;28;20040;-80
2022/08/02 04:16:12;;;;;;;0.20;0.20;;;;;;;18.47;53.62;101789.31;5056186;28;20492;-81
2022/08/02 04:18:45;;;;;;;0.10;0.10;;;;;;;18.42;53.99;101792.16;5056888;28;20060;-80
2022/08/02 04:21:16;;;;;;;0.10;0.10;;;;;;;18.42;53.80;101794.84;5055652;28;20570;-82
2022/08/02 04:23:44;;;;;;;0.10;0.10;;;;;;;18.41;54.23;101797.59;5057146;28;20029;-83
2022/08/02 04:26:11;;;;;;;0.10;0.10;;;;;;;18.41;54.30;101801.16;5057783;28;20095;-81
2022/08/02 04:28:37;;;;;;;0.10;0.10;;;;;;;18.44;54.71;101800.16;5057205;28;20492;-81
2022/08/02 04:31:05;;;;;;;0.10;0.10;;;;;;;18.47;54.35;101807.22;5057595;28;20041;-81
2022/08/02 04:33:33;;;;;;;0.10;0.10;;;;;;;18.48;55.06;101803.59;5057395;28;20072;-82
2022/08/02 04:35:59;;;;;;;0.00;0.00;;;;;;;18.50;55.57;101817.84;5057250;28;20021;-79
2022/08/02 04:38:25;;;;;;;0.10;0.10;;;;;;;18.52;54.63;101807.94;5057700;28;20497;-82
2022/08/02 04:40:54;;;;;;;0.10;0.10;;;;;;;18.55;54.58;101810.50;5056600;28;20055;-83
2022/08/02 04:43:21;;;;;;;0.20;0.20;;;;;;;18.57;54.50;101814.88;5057587;28;20053;-82
2022/08/02 04:45:52;;;;;;;0.10;0.10;;;;;;;18.61;54.64;101809.41;5059017;28;20041;-82
2022/08/02 04:48:20;;;;;;;0.10;0.10;;;;;;;18.62;54.51;101805.75;5061141;28;20031;-83
2022/08/02 04:50:46;;;;;;;0.10;0.10;;;;;;;18.62;54.54;101801.28;5059093;28;20036;-80
2022/08/02 04:53:12;;;;;;;0.15;0.15;;;;;;;18.61;54.97;101799.53;5057651;28;20040;-81
2022/08/02 04:55:39;;;;;;;0.10;0.10;;;;;;;18.59;54.73;101790.66;5057622;28;20511;-83
2022/08/02 04:58:05;;;;;;;0.10;0.10;;;;;;;18.60;54.70;101792.41;5057872;28;20501;-81
2022/08/02 05:00:31;;;;;;;0.10;0.10;;;;;;;18.62;54.56;101786.97;5056043;28;20032;-80
2022/08/02 05:02:58;;;;;;;0.10;0.10;;;;;;;18.62;54.42;101778.91;5054119;28;20422;-79
2022/08/02 05:05:25;;;;;;;0.10;0.10;;;;;;;18.64;55.03;101786.00;5055167;28;20025;-81
2022/08/02 05:07:52;;;;;;;0.10;0.10;;;;;;;18.69;54.70;101794.75;5055062;28;20541;-80
2022/08/02 05:10:19;;;;;;;0.10;0.10;;;;;;;18.74;54.41;101800.81;5054902;28;20039;-82
2022/08/02 05:12:45;;;;;;;0.17;0.17;;;;;;;18.79;54.16;101794.38;5054531;28;20032;-81
2022/08/02 05:15:15;;;;;;;2.08;0.65;;;;;;;18.80;54.14;101791.63;5055252;28;20114;-81
2022/08/02 05:17:41;;;;;;;0.10;0.10;;;;;;;18.84;54.68;101795.06;5055020;28;20021;-80
2022/08/02 05:20:08;;;;;;;0.10;0.10;;;;;;;18.89;54.29;101803.81;5055964;28;20052;-81
2022/08/02 05:22:34;;;;;;;0.10;0.10;;;;;;;18.94;54.30;101809.94;5054303;28;20074;-80
2022/08/02 05:25:00;;;;;;;0.10;0.10;;;;;;;19.00;54.24;101809.66;5055794;28;20404;-80
2022/08/02 05:27:26;;;;;;;0.10;0.10;;;;;;;19.05;53.91;101821.09;5055936;28;20085;-80
2022/08/02 05:29:53;;;;;;;0.10;0.10;;;;;;;19.08;53.91;101820.97;5058097;22;20039;-78
2022/08/02 05:32:19;;;;;;;0.00;0.00;;;;;;;19.13;53.55;101822.59;4995905;28;20030;-78
2022/08/02 05:34:45;;;;;;;0.10;0.10;;;;;;;19.15;54.05;101813.56;5015603;28;20029;-79
2022/08/02 05:37:11;;;;;;;0.30;0.30;;;;;;;19.17;54.13;101806.28;5015956;28;20041;-79
2022/08/02 05:39:37;;;;;;;0.10;0.10;;;;;;;19.24;53.60;101809.63;5015410;28;20094;-80
2022/08/02 05:42:04;;;;;;;0.10;0.10;;;;;;;19.24;54.64;101812.31;5007415;28;20414;-80
2022/08/02 05:44:30;;;;;;;0.10;0.10;;;;;;;19.25;53.78;101800.59;5007925;28;20053;-81
2022/08/02 05:46:56;;;;;;;0.22;0.22;;;;;;;19.27;53.50;101795.19;5009975;28;20022;-81
2022/08/02 05:49:22;;;;;;;0.10;0.10;;;;;;;19.30;53.52;101792.34;5005481;28;20102;-80
2022/08/02 05:52:08;;;;;;;0.10;0.10;;;;;;;19.36;53.38;101789.41;5004876;28;20057;-81
2022/08/02 05:54:50;;;;;;;0.10;0.10;;;;;;;19.33;53.39;101785.03;5005318;28;20026;-81
2022/08/02 05:57:30;;;;;;;0.10;0.10;;;;;;;19.29;53.87;101786.13;5004286;28;20022;-80
2022/08/02 06:00:08;;;;;;;0.15;0.15;;;;;;;19.36;53.78;101786.72;5004682;28;20022;-81
2022/08/02 06:05:15;;;;;;;0.10;0.10;;;;;;;19.52;53.98;101795.00;5071051;28;20134;-77
2022/08/02 06:07:43;;;;;;;0.10;0.10;;;;;;;19.58;54.02;101784.00;5070981;28;20047;-76
2022/08/02 06:10:12;;;;;;;0.03;0.03;;;;;;;19.61;53.86;101781.16;5070653;28;20025;-77
2022/08/02 06:12:48;;;;;;;0.10;0.10;;;;;;;19.72;53.26;101786.94;5069475;28;20465;-77
2022/08/02 06:15:16;;;;;;;0.40;0.40;;;;;;;19.81;53.46;101792.88;5070235;28;20025;-76
2022/08/02 06:17:42;;;;;;;0.10;0.10;;;;;;;19.88;53.73;101778.25;5070327;28;20390;-77
2022/08/02 06:20:10;;;;;;;0.22;0.22;;;;;;;19.97;53.85;101777.84;5070994;28;20029;-77
2022/08/02 06:22:42;;;;;;;0.10;0.10;;;;;;;20.04;52.62;101779.31;5070463;28;20036;-77
2022/08/02 06:25:09;;;;;;;0.88;0.88;;;;;;;20.13;53.03;101775.31;5070965;28;20036;-77
2022/08/02 06:27:37;;;;;;;0.10;0.10;;;;;;;20.25;52.93;101775.72;5070446;28;20028;-77
2022/08/02 06:30:05;;;;;;;2.15;1.95;;;;;;;20.32;52.74;101779.88;5070947;28;20021;-77
2022/08/02 06:32:33;;;;;;;0.20;0.20;;;;;;;20.35;53.04;101777.06;5070756;28;20032;-77
2022/08/02 06:34:59;;;;;;;0.20;0.20;;;;;;;20.42;53.03;101772.25;5071338;28;20036;-77
2022/08/02 06:40:24;;;;;;;0.32;0.32;;;;;;;20.60;53.09;101776.75;5091254;28;20328;-77
2022/08/02 06:43:12;;;;;;;0.10;0.10;;;;;;;20.63;53.53;101770.34;5089238;28;20047;-77
2022/08/02 06:45:39;;;;;;;0.35;0.35;;;;;;;20.74;53.65;101775.28;5089057;28;20050;-77
2022/08/02 06:48:06;;;;;;;0.47;0.47;;;;;;;20.72;54.24;101772.63;5088947;28;20063;-77
2022/08/02 06:50:33;;;;;;;0.10;0.10;;;;;;;20.84;53.75;101772.03;5088702;28;20386;-76
2022/08/02 06:52:59;;;;;;;0.10;0.10;;;;;;;20.93;53.26;101773.41;5088559;28;20119;-77
2022/08/02 06:55:27;;;;;;;0.10;0.10;;;;;;;20.99;54.54;101778.50;5088814;28;20024;-77
2022/08/02 06:57:54;;;;;;;0.10;0.10;;;;;;;21.07;54.38;101779.94;5089104;28;20649;-77
2022/08/02 07:00:20;;;;;;;1.38;1.30;;;;;;;21.09;54.19;101769.97;5088514;28;20025;-77
2022/08/02 07:02:47;;;;;;;0.13;0.13;;;;;;;21.14;54.24;101770.63;5088333;28;20050;-77
2022/08/02 07:05:13;;;;;;;0.10;0.10;;;;;;;21.16;54.07;101774.13;5088556;28;20084;-77
2022/08/02 07:07:40;;;;;;;0.17;0.17;;;;;;;21.30;54.16;101759.94;5088864;28;20032;-77
2022/08/02 07:10:06;;;;;;;0.32;0.32;;;;;;;21.41;54.34;101768.34;5088698;28;20090;-77
2022/08/02 07:12:33;;;;;;;0.10;0.10;;;;;;;21.48;54.83;101763.50;5088250;28;20032;-77
2022/08/02 07:15:02;;;;;;;0.30;0.30;;;;;;;21.59;54.60;101753.06;5088330;28;20035;-77
2022/08/02 07:17:29;;;;;;;0.60;0.60;;;;;;;21.67;55.89;101754.50;5088228;28;20057;-77
2022/08/02 07:19:55;;;;;;;0.95;0.95;;;;;;;21.72;56.24;101753.31;5087855;28;20028;-77
2022/08/02 07:22:23;;;;;;;0.25;0.25;;;;;;;21.90;57.71;101759.53;5087885;28;20028;-77
2022/08/02 07:24:50;;;;;;;0.28;0.28;;;;;;;22.06;57.32;101754.19;5087622;28;20035;-77
2022/08/02 07:27:16;;;;;;;0.30;0.30;;;;;;;22.14;57.44;101748.38;5088455;28;20034;-77
2022/08/02 07:29:42;;;;;;;0.45;0.45;;;;;;;22.22;57.97;101747.94;5088873;28;20386;-77
2022/08/02 07:32:08;;;;;;;0.63;0.63;;;;;;;22.23;57.67;101745.19;5087041;28;20036;-77
2022/08/02 07:34:34;;;;;;;0.13;0.13;;;;;;;22.36;57.49;101739.97;5088238;28;20028;-77
2022/08/02 07:37:00;;;;;;;0.63;0.63;;;;;;;22.42;56.67;101733.41;5090864;28;20067;-77
2022/08/02 07:39:27;;;;;;;7.00;1.40;;;;;;;22.57;56.57;101739.78;5090798;28;20081;-77
2022/08/02 07:41:53;;;;;;;3.53;0.60;;;;;;;22.64;55.57;101734.88;5090093;28;20098;-77
2022/08/02 07:44:20;;;;;;;1.88;1.30;;;;;;;22.78;55.18;101745.78;5090313;28;20032;-77
2022/08/02 07:46:46;;;;;;;0.22;0.22;;;;;;;22.92;54.97;101742.28;5090291;28;20024;-77
2022/08/02 07:49:17;;;;;;;30.73;1.20;;;;;;;22.97;54.80;101739.28;5090159;28;20028;-77
2022/08/02 07:51:44;;;;;;;0.73;0.73;;;;;;;22.99;55.25;101732.88;5076450;28;20119;-77
2022/08/02 07:54:10;;;;;;;0.22;0.22;;;;;;;23.02;54.94;101740.78;5077533;28;20028;-77
2022/08/02 07:56:36;;;;;;;0.10;0.10;;;;;;;23.25;54.43;101733.16;5077553;28;20604;-77
2022/08/02 07:59:03;;;;;;;3.50;1.23;;;;;;;23.30;54.52;101741.00;5077470;28;20448;-78
2022/08/02 08:01:29;;;;;;;1.10;1.10;;;;;;;23.42;54.52;101735.72;5076841;28;20033;-77
2022/08/02 08:03:56;;;;;;;0.30;0.30;;;;;;;23.56;54.42;101728.63;5077889;28;20033;-77
2022/08/02 08:06:22;;;;;;;0.80;0.80;;;;;;;23.68;54.04;101729.72;5077532;28;20063;-77
2022/08/02 08:08:48;;;;;;;0.20;0.20;;;;;;;23.69;53.66;101728.72;5077737;28;20024;-78
2022/08/02 08:11:15;;;;;;;0.20;0.20;;;;;;;23.75;54.43;101734.66;5077357;28;20489;-77
2022/08/02 08:13:41;;;;;;;0.10;0.10;;;;;;;23.85;54.07;101726.84;5078128;28;20049;-77
2022/08/02 08:16:07;;;;;;;1.42;1.25;;;;;;;23.90;54.34;101730.13;5076692;28;20021;-77
2022/08/02 08:18:33;;;;;;;0.57;0.57;;;;;;;23.98;53.69;101739.63;5077124;28;20044;-77
2022/08/02 08:21:00;;;;;;;0.60;0.60;;;;;;;23.90;54.00;101727.41;5076167;28;20031;-77
2022/08/02 08:23:26;;;;;;;0.38;0.38;;;;;;;24.06;54.38;101734.59;5076704;28;20520;-77
2022/08/02 08:25:52;;;;;;;0.10;0.10;;;;;;;24.03;54.41;101729.38;5076463;28;20092;-77
2022/08/02 08:28:18;;;;;;;0.47;0.43;;;;;;;24.18;54.26;101717.56;5077679;28;20093;-77
2022/08/02 08:30:46;;;;;;;0.57;0.52;;;;;;;24.29;54.12;101725.00;5076480;28;20033;-77
2022/08/02 08:33:12;;;;;;;0.25;0.25;;;;;;;24.20;54.05;101725.59;5077217;28;20103;-77
2022/08/02 08:35:38;;;;;;;1.27;0.85;;;;;;;24.43;53.71;101715.97;5076871;28;20051;-77
2022/08/02 08:38:05;;;;;;;0.55;0.55;;;;;;;24.47;53.95;101722.94;5077084;28;20119;-77
2022/08/02 08:40:31;;;;;;;4.68;1.65;;;;;;;24.53;53.91;101733.38;5076700;28;20028;-77
2022/08/02 08:42:57;;;;;;;0.40;0.40;;;;;;;24.67;53.82;101718.09;5076323;28;20039;-77
2022/08/02 08:45:23;;;;;;;0.77;0.77;;;;;;;24.70;53.08;101726.03;5077603;28;20024;-78
2022/08/02 08:48:04;;;;;;;0.20;0.20;;;;;;;24.99;52.78;101723.22;5077200;28;20035;-77
2022/08/02 08:50:33;;;;;;;0.90;0.90;;;;;;;25.04;51.66;101737.31;5077229;28;20137;-78
2022/08/02 08:53:07;;;;;;;7.63;0.70;;;;;;;25.26;50.49;101727.72;5075757;28;20445;-77
2022/08/02 08:55:36;;;;;;;0.10;0.10;;;;;;;25.46;50.79;101713.69;5076694;28;20054;-77
2022/08/02 08:58:04;;;;;;;0.47;0.47;;;;;;;25.65;50.19;101725.97;5076952;28;20578;-77
2022/08/02 09:00:31;;;;;;;0.20;0.20;;;;;;;25.73;50.20;101720.00;5076332;28;20043;-77
2022/08/02 09:03:00;;;;;;;0.40;0.40;;;;;;;26.02;50.21;101717.94;5074885;28;20063;-77
2022/08/02 09:05:27;;;;;;;0.30;0.30;;;;;;;26.25;49.05;101726.31;5076302;28;20031;-78
2022/08/02 09:07:53;;;;;;;0.40;0.40;;;;;;;26.24;47.91;101717.25;5076944;28;20021;-77
2022/08/02 09:10:40;;;;;;;0.10;0.10;;;;;;;26.47;47.80;101712.88;5076899;28;20033;-78
2022/08/02 09:15:57;;;;;;;0.10;0.10;;;;;;;26.47;46.50;101718.31;5071690;28;20390;-77
2022/08/02 09:18:33;;;;;;;0.45;0.45;;;;;;;26.62;46.79;101720.88;5072014;28;20041;-77
2022/08/02 09:21:01;;;;;;;0.30;0.30;;;;;;;26.76;47.54;101723.44;5071759;28;20040;-77
2022/08/02 09:23:48;;;;;;;0.20;0.20;;;;;;;26.86;47.00;101729.06;5070723;28;20108;-77
2022/08/02 09:26:17;;;;;;;0.17;0.17;;;;;;;26.67;46.14;101717.78;5070715;28;20387;-77
2022/08/02 09:28:46;;;;;;;1.10;0.95;;;;;;;26.80;46.86;101724.97;5070476;28;20028;-76
2022/08/02 09:31:16;;;;;;;0.52;0.52;;;;;;;26.84;46.34;101730.16;5069720;28;20032;-77
2022/08/02 09:33:49;;;;;;;0.63;0.63;;;;;;;26.88;46.72;101723.50;5070317;28;20437;-76
2022/08/02 09:36:16;;;;;;;0.20;0.20;;;;;;;26.89;46.23;101725.25;5070301;28;20418;-77
2022/08/02 09:39:01;;;;;;;0.60;0.60;;;;;;;27.10;46.13;101725.47;5069879;28;20056;-77
2022/08/02 09:41:29;;;;;;;0.10;0.10;;;;;;;27.18;46.14;101730.31;5069541;28;20159;-77
2022/08/02 09:43:57;;;;;;;0.50;0.50;;;;;;;27.21;45.52;101733.66;5070211;28;20483;-77
2022/08/02 09:46:26;;;;;;;0.10;0.10;;;;;;;27.28;45.36;101728.63;5069723;28;20037;-77
2022/08/02 09:51:34;;;;;;;0.25;0.25;;;;;;;27.23;43.82;101730.84;5069763;28;20103;-77
2022/08/02 09:54:03;;;;;;;0.10;0.10;;;;;;;27.19;44.19;101732.03;5070194;28;20071;-77
2022/08/02 09:56:40;;;;;;;0.20;0.20;;;;;;;27.13;43.55;101722.53;5070159;28;20486;-77
2022/08/02 09:59:07;;;;;;;0.20;0.20;;;;;;;27.15;43.20;101728.69;5069814;28;20025;-77
2022/08/02 10:01:34;;;;;;;0.10;0.10;;;;;;;27.09;43.10;101735.50;5069344;28;20033;-77
2022/08/02 10:04:02;;;;;;;0.30;0.30;;;;;;;27.16;43.03;101735.03;5070153;28;20041;-77
2022/08/02 10:06:30;;;;;;;0.10;0.10;;;;;;;26.88;42.03;101750.69;5069180;28;20097;-77
2022/08/02 10:08:57;;;;;;;0.10;0.10;;;;;;;26.92;42.49;101750.34;5071107;28;20033;-77
2022/08/02 10:11:26;;;;;;;0.10;0.10;;;;;;;26.91;41.90;101753.19;5068928;28;20025;-77
2022/08/02 10:13:53;;;;;;;0.10;0.10;;;;;;;27.06;42.31;101746.59;5069922;28;20043;-77
2022/08/02 10:16:22;;;;;;;0.10;0.10;;;;;;;27.10;42.26;101756.28;5070244;28;20020;-77
2022/08/02 10:18:58;;;;;;;0.10;0.10;;;;;;;27.24;42.11;101738.88;5069738;28;20513;-77
2022/08/02 10:21:49;;;;;;;0.10;0.10;;;;;;;27.35;42.49;101740.75;5069836;28;20024;-77
2022/08/02 10:24:20;;;;;;;0.10;0.10;;;;;;;27.35;41.87;101734.47;5069960;28;20032;-77
2022/08/02 10:26:48;;;;;;;0.25;0.25;;;;;;;27.30;41.85;101737.53;5069060;28;20021;-77
2022/08/02 10:29:17;;;;;;;0.10;0.10;;;;;;;27.50;42.05;101748.75;5069783;28;20624;-77
2022/08/02 10:31:50;;;;;;;0.10;0.10;;;;;;;27.53;40.65;101730.34;5069642;28;20533;-77
2022/08/02 10:34:20;;;;;;;0.52;0.52;;;;;;;27.69;40.69;101716.41;5069586;28;20029;-77
2022/08/02 10:36:48;;;;;;;0.20;0.20;;;;;;;27.79;40.83;101723.81;5070450;28;20025;-77
2022/08/02 10:39:14;;;;;;;0.43;0.43;;;;;;;27.91;40.57;101720.13;5069082;28;20506;-77
2022/08/02 10:44:27;;;;;;;0.65;0.65;;;;;;;28.09;40.17;101717.81;5090398;27;20145;-77
2022/08/02 10:49:55;;;;;;;0.32;0.32;;;;;;;28.24;39.41;101708.38;5116826;27;20400;-78
2022/08/02 10:52:24;;;;;;;0.50;0.50;;;;;;;28.33;39.60;101720.38;5117633;28;20065;-78
2022/08/02 10:57:34;;;;;;;0.10;0.10;;;;;;;28.21;37.95;101705.03;5071129;28;20386;-78
2022/08/02 11:05:26;;;;;;;0.47;0.30;;;;;;;28.41;38.43;101709.72;5120282;27;1273012;-80
2022/08/02 11:07:52;;;;;;;0.17;0.17;;;;;;;28.41;38.41;101703.38;5135987;27;20077;-80
2022/08/02 11:10:36;;;;;;;0.10;0.10;;;;;;;28.66;38.15;101704.97;5127057;28;20042;-80
2022/08/02 11:15:49;;;;;;;0.10;0.10;;;;;;;28.87;37.71;101712.34;5111256;27;20133;-77
2022/08/02 11:18:15;;;;;;;0.32;0.32;;;;;;;28.88;36.73;101708.63;5111246;28;20103;-77
2022/08/02 11:20:41;;;;;;;0.25;0.25;;;;;;;28.76;36.52;101701.47;5110776;28;20584;-76
2022/08/02 11:23:42;;;;;;;0.20;0.20;;;;;;;29.05;36.80;101704.47;5111312;27;20034;-77
2022/08/02 11:29:07;;;;;;;0.25;0.25;;;;;;;29.14;35.10;101705.56;5111258;27;20904;-77
2022/08/02 11:31:48;;;;;;;0.32;0.32;;;;;;;29.32;36.59;101695.81;5111348;22;20520;-82
2022/08/02 11:34:16;;;;;;;0.10;0.10;;;;;;;29.30;35.58;101700.53;5094809;28;20060;-83
2022/08/02 11:36:48;;;;;;;0.03;0.03;;;;;;;29.36;36.34;101701.88;5094703;28;20267;-82
2022/08/02 11:39:16;;;;;;;0.43;0.43;;;;;;;29.28;36.48;101705.22;5093281;28;20028;-81
2022/08/02 11:41:49;;;;;;;0.20;0.20;;;;;;;29.43;36.04;101694.00;5110338;28;20449;-81
2022/08/02 11:44:15;;;;;;;0.10;0.10;;;;;;;29.61;36.38;101700.59;5112716;28;20026;-81
2022/08/02 11:46:41;;;;;;;0.05;0.05;;;;;;;29.59;34.66;101702.56;5111839;28;20023;-80
2022/08/02 11:49:18;;;;;;;0.38;0.30;;;;;;;29.83;35.64;101693.22;5113976;28;20023;-83
2022/08/02 11:54:35;;;;;;;0.20;0.20;;;;;;;29.79;35.32;101694.50;5111908;27;20902;-81
2022/08/02 11:57:19;;;;;;;0.20;0.20;;;;;;;29.99;36.18;101698.19;5112069;28;20384;-81
2022/08/02 11:59:48;;;;;;;0.45;0.30;;;;;;;29.99;35.87;101699.06;5112759;28;20042;-81
2022/08/02 12:02:15;;;;;;;0.20;0.20;;;;;;;29.99;36.08;101704.53;5111603;28;20039;-82
2022/08/02 12:04:42;;;;;;;0.20;0.20;;;;;;;29.84;36.94;101698.53;5112165;28;20028;-81
2022/08/02 12:07:08;;;;;;;0.20;0.20;;;;;;;29.92;36.40;101697.91;5111582;28;20035;-81
2022/08/02 12:09:35;;;;;;;0.20;0.20;;;;;;;29.80;36.23;101697.09;5112070;28;20031;-83
2022/08/02 12:12:03;;;;;;;0.10;0.10;;;;;;;29.96;36.44;101698.50;5111542;28;20055;-81
2022/08/02 12:14:30;;;;;;;0.40;0.40;;;;;;;29.99;36.49;101699.06;5113080;28;20156;-81